Airfield :
LOGIN :

Register | Disclaimer

   EN    FR    IT 

 










Legend :    VFR   Marginal VFR   IFR   Intensive IFR   Very Intensive IFR
Visi :
Ceiling :
>= 8 km
>= 3000ft
5 to 8 km
1000 to 3000 ft
1500m to 5 km
500 to 1000 ft
800 to 1500m
200 to 500 ft
< 800m
< 200 ft
Symbols :   Thunderstorms  Fog  Heavy snow  Heavy precipitations  Wind > 20 kt
SIGMETs :     Misc.  Thunderstorms  Icing  Turbulence  Mountain Waves  Volcanic Ashes






- Airport Elevation : 74 ft
- IATA code : EIN


EHEH - Eindhoven

CURRENT METAR :
  • 281255Z AUTO 19013KT 9999 OVC100 07/01 Q1014 BLU 19012KT CAVOK

EXPIRED METARs :
  • 281237Z AUTO 19012KT 140V220 9999 OVC100 07/01 Q1014 BLU 19012KT CAVOK
  • 281225Z AUTO 18012KT 150V220 9999 OVC100 07/01 Q1014 BLU 19010KT CAVOK
  • 281155Z AUTO 19010KT 160V230 9999 OVC110 06/01 Q1015 BLU 19010KT CAVOK
  • 281125Z AUTO 19010KT 160V220 9999 OVC100 06/01 Q1016 BLU 19010KT CAVOK
  • 281108Z AUTO 19011KT 160V220 9999 OVC100 05/01 Q1016 BLU 19010KT CAVOK
  • 281055Z AUTO 19011KT 160V230 9999 OVC110 05/01 Q1016 BLU 19010KT CAVOK
  • 281025Z AUTO 20010KT 170V230 9999 OVC120 05/01 Q1016 BLU 19010KT CAVOK

TAF TAF EHEH
Valid from the 28 at 12:00 until the 29 at 18:00 UTC


281150Z 2812/2918 19011KT CAVOK
BECMG 2816/2818 17024G36KT SCT015 BKN020
TEMPO 2818/2822 4000 RADZ SCT006 BKN007
PROB30
TEMPO 2818/2820 2000 DZRA SCT004 BKN006
BECMG 2821/2823 22025G37KT SCT008 BKN012
TEMPO 2821/2905 SCT005 BKN008
BECMG 2904/2906 FEW030
BECMG 2912/2915 SCT020 BKN035
TEMPO 2912/2915 24028G41KT 4500 SHRA SCT012 SCT018CB BKN020



MET'MAP, your aeronautical weather chart ! - Copyright ORBIFLY December 2007 - Disclaimer

ORBIFLY MET'MAP TEAM :

Programming & Development : Alexandra Zaïnal
Concept & original design : Baudouin d'Aumeries
Assistance for programming : Marc-Olivier Méhu
Technical & hardware support : Manuel Goepfert

Contact : metmap@orbifly.com




SOURCES & CREDITS :

   NOAA